sensor_id;sensor_type;location;lat;lon;timestamp;P1;durP1;ratioP1;P2;durP2;ratioP2
22965;SDS011;11649;48.090;9.754;2023-05-15T00:02:14;9.10;;;6.80;;
22965;SDS011;11649;48.090;9.754;2023-05-15T00:04:41;8.05;;;7.22;;
22965;SDS011;11649;48.090;9.754;2023-05-15T00:07:07;7.47;;;6.68;;
22965;SDS011;11649;48.090;9.754;2023-05-15T00:09:34;9.02;;;7.45;;
22965;SDS011;11649;48.090;9.754;2023-05-15T00:12:01;9.73;;;6.95;;
22965;SDS011;11649;48.090;9.754;2023-05-15T00:14:28;8.00;;;6.57;;
22965;SDS011;11649;48.090;9.754;2023-05-15T00:16:55;7.97;;;7.07;;
22965;SDS011;11649;48.090;9.754;2023-05-15T00:19:25;9.93;;;7.18;;
22965;SDS011;11649;48.090;9.754;2023-05-15T00:21:52;9.88;;;7.50;;
22965;SDS011;11649;48.090;9.754;2023-05-15T00:24:19;8.80;;;7.60;;
22965;SDS011;11649;48.090;9.754;2023-05-15T00:26:46;10.13;;;7.70;;
22965;SDS011;11649;48.090;9.754;2023-05-15T00:29:13;8.38;;;7.20;;
22965;SDS011;11649;48.090;9.754;2023-05-15T00:31:40;10.20;;;7.18;;
22965;SDS011;11649;48.090;9.754;2023-05-15T00:34:07;7.50;;;6.47;;
22965;SDS011;11649;48.090;9.754;2023-05-15T00:36:33;9.82;;;7.63;;
22965;SDS011;11649;48.090;9.754;2023-05-15T00:39:00;9.32;;;7.10;;
22965;SDS011;11649;48.090;9.754;2023-05-15T00:41:27;10.30;;;7.55;;
22965;SDS011;11649;48.090;9.754;2023-05-15T00:43:57;8.10;;;7.00;;
22965;SDS011;11649;48.090;9.754;2023-05-15T00:46:26;10.70;;;7.68;;
22965;SDS011;11649;48.090;9.754;2023-05-15T00:48:56;9.02;;;7.00;;
22965;SDS011;11649;48.090;9.754;2023-05-15T00:51:24;9.02;;;7.68;;
22965;SDS011;11649;48.090;9.754;2023-05-15T00:53:52;10.32;;;7.40;;
22965;SDS011;11649;48.090;9.754;2023-05-15T00:56:20;11.65;;;7.57;;
22965;SDS011;11649;48.090;9.754;2023-05-15T00:58:50;9.57;;;7.88;;
22965;SDS011;11649;48.090;9.754;2023-05-15T01:01:18;8.38;;;7.18;;
22965;SDS011;11649;48.090;9.754;2023-05-15T01:03:45;9.93;;;8.32;;
22965;SDS011;11649;48.090;9.754;2023-05-15T01:06:12;9.48;;;7.30;;
22965;SDS011;11649;48.090;9.754;2023-05-15T01:08:42;8.65;;;7.35;;
22965;SDS011;11649;48.090;9.754;2023-05-15T01:11:13;10.90;;;7.53;;
22965;SDS011;11649;48.090;9.754;2023-05-15T01:13:41;9.13;;;8.23;;
22965;SDS011;11649;48.090;9.754;2023-05-15T01:16:10;12.00;;;7.65;;
22965;SDS011;11649;48.090;9.754;2023-05-15T01:18:37;9.52;;;7.53;;
22965;SDS011;11649;48.090;9.754;2023-05-15T01:21:48;9.55;;;7.57;;
22965;SDS011;11649;48.090;9.754;2023-05-15T01:27:11;10.93;;;9.57;;
22965;SDS011;11649;48.090;9.754;2023-05-15T01:29:41;13.02;;;8.30;;
22965;SDS011;11649;48.090;9.754;2023-05-15T01:32:15;8.73;;;7.82;;
22965;SDS011;11649;48.090;9.754;2023-05-15T01:35:08;8.98;;;7.70;;
22965;SDS011;11649;48.090;9.754;2023-05-15T01:37:40;9.40;;;7.63;;
22965;SDS011;11649;48.090;9.754;2023-05-15T01:40:10;8.52;;;7.60;;
22965;SDS011;11649;48.090;9.754;2023-05-15T01:42:41;8.50;;;7.60;;
22965;SDS011;11649;48.090;9.754;2023-05-15T01:45:14;9.00;;;7.80;;
22965;SDS011;11649;48.090;9.754;2023-05-15T01:47:43;8.27;;;7.35;;
22965;SDS011;11649;48.090;9.754;2023-05-15T01:50:13;8.70;;;7.70;;
22965;SDS011;11649;48.090;9.754;2023-05-15T01:52:46;9.63;;;7.68;;
22965;SDS011;11649;48.090;9.754;2023-05-15T01:57:43;9.38;;;8.23;;
22965;SDS011;11649;48.090;9.754;2023-05-15T02:00:13;9.68;;;7.32;;
22965;SDS011;11649;48.090;9.754;2023-05-15T02:02:41;8.20;;;7.38;;
22965;SDS011;11649;48.090;9.754;2023-05-15T02:05:09;8.07;;;7.22;;
22965;SDS011;11649;48.090;9.754;2023-05-15T02:07:37;9.48;;;7.03;;
22965;SDS011;11649;48.090;9.754;2023-05-15T02:10:04;19.00;;;6.80;;
22965;SDS011;11649;48.090;9.754;2023-05-15T02:12:32;12.82;;;7.85;;
22965;SDS011;11649;48.090;9.754;2023-05-15T02:14:59;9.38;;;6.90;;
22965;SDS011;11649;48.090;9.754;2023-05-15T02:17:28;8.38;;;7.10;;
22965;SDS011;11649;48.090;9.754;2023-05-15T02:19:56;8.68;;;7.20;;
22965;SDS011;11649;48.090;9.754;2023-05-15T02:22:23;8.23;;;6.70;;
22965;SDS011;11649;48.090;9.754;2023-05-15T02:24:50;8.90;;;7.13;;
22965;SDS011;11649;48.090;9.754;2023-05-15T02:27:28;10.68;;;7.28;;
22965;SDS011;11649;48.090;9.754;2023-05-15T02:30:18;7.80;;;6.60;;
22965;SDS011;11649;48.090;9.754;2023-05-15T02:33:15;7.70;;;6.80;;
22965;SDS011;11649;48.090;9.754;2023-05-15T02:35:47;8.23;;;7.10;;
22965;SDS011;11649;48.090;9.754;2023-05-15T02:38:51;8.00;;;7.20;;
22965;SDS011;11649;48.090;9.754;2023-05-15T02:41:18;8.57;;;6.93;;
22965;SDS011;11649;48.090;9.754;2023-05-15T02:43:47;10.55;;;7.25;;
22965;SDS011;11649;48.090;9.754;2023-05-15T02:46:17;8.20;;;7.18;;
22965;SDS011;11649;48.090;9.754;2023-05-15T02:48:46;9.60;;;7.38;;
22965;SDS011;11649;48.090;9.754;2023-05-15T02:51:13;8.70;;;6.88;;
22965;SDS011;11649;48.090;9.754;2023-05-15T02:53:41;9.95;;;7.28;;
22965;SDS011;11649;48.090;9.754;2023-05-15T02:56:08;7.65;;;6.85;;
22965;SDS011;11649;48.090;9.754;2023-05-15T02:58:35;8.20;;;6.55;;
22965;SDS011;11649;48.090;9.754;2023-05-15T03:01:03;8.63;;;7.57;;
22965;SDS011;11649;48.090;9.754;2023-05-15T03:03:30;7.88;;;7.00;;
22965;SDS011;11649;48.090;9.754;2023-05-15T03:05:58;7.97;;;6.75;;
22965;SDS011;11649;48.090;9.754;2023-05-15T03:08:26;7.68;;;6.72;;
22965;SDS011;11649;48.090;9.754;2023-05-15T03:10:53;7.75;;;6.95;;
22965;SDS011;11649;48.090;9.754;2023-05-15T03:13:20;8.43;;;6.65;;
22965;SDS011;11649;48.090;9.754;2023-05-15T03:15:47;8.57;;;7.32;;
22965;SDS011;11649;48.090;9.754;2023-05-15T03:18:13;8.90;;;6.82;;
22965;SDS011;11649;48.090;9.754;2023-05-15T03:20:43;8.32;;;7.07;;
22965;SDS011;11649;48.090;9.754;2023-05-15T03:23:10;10.20;;;7.07;;
22965;SDS011;11649;48.090;9.754;2023-05-15T03:25:37;8.10;;;7.22;;
22965;SDS011;11649;48.090;9.754;2023-05-15T03:28:04;7.90;;;6.93;;
22965;SDS011;11649;48.090;9.754;2023-05-15T03:30:31;9.35;;;7.88;;
22965;SDS011;11649;48.090;9.754;2023-05-15T03:32:57;9.02;;;7.95;;
22965;SDS011;11649;48.090;9.754;2023-05-15T03:35:24;9.60;;;7.97;;
22965;SDS011;11649;48.090;9.754;2023-05-15T03:37:52;8.43;;;7.53;;
22965;SDS011;11649;48.090;9.754;2023-05-15T03:40:19;9.85;;;8.80;;
22965;SDS011;11649;48.090;9.754;2023-05-15T03:42:45;11.93;;;8.68;;
22965;SDS011;11649;48.090;9.754;2023-05-15T03:45:12;9.73;;;8.05;;
22965;SDS011;11649;48.090;9.754;2023-05-15T03:47:39;8.38;;;7.57;;
22965;SDS011;11649;48.090;9.754;2023-05-15T03:50:06;8.65;;;7.68;;
22965;SDS011;11649;48.090;9.754;2023-05-15T03:52:33;9.95;;;7.75;;
22965;SDS011;11649;48.090;9.754;2023-05-15T03:55:00;9.43;;;8.43;;
22965;SDS011;11649;48.090;9.754;2023-05-15T03:57:26;12.55;;;7.40;;
22965;SDS011;11649;48.090;9.754;2023-05-15T03:59:53;9.50;;;7.85;;
22965;SDS011;11649;48.090;9.754;2023-05-15T04:02:20;9.02;;;8.13;;
22965;SDS011;11649;48.090;9.754;2023-05-15T04:04:47;9.70;;;7.90;;
22965;SDS011;11649;48.090;9.754;2023-05-15T04:07:14;9.07;;;8.05;;
22965;SDS011;11649;48.090;9.754;2023-05-15T04:09:40;11.80;;;8.52;;
22965;SDS011;11649;48.090;9.754;2023-05-15T04:12:07;11.52;;;7.95;;
22965;SDS011;11649;48.090;9.754;2023-05-15T04:14:34;10.35;;;8.60;;
22965;SDS011;11649;48.090;9.754;2023-05-15T04:17:01;13.88;;;8.35;;
22965;SDS011;11649;48.090;9.754;2023-05-15T04:19:27;11.45;;;8.30;;
22965;SDS011;11649;48.090;9.754;2023-05-15T04:21:54;11.07;;;8.88;;
22965;SDS011;11649;48.090;9.754;2023-05-15T04:24:21;10.77;;;8.77;;
22965;SDS011;11649;48.090;9.754;2023-05-15T04:26:48;10.85;;;8.82;;
22965;SDS011;11649;48.090;9.754;2023-05-15T04:29:14;11.85;;;8.68;;
22965;SDS011;11649;48.090;9.754;2023-05-15T04:31:41;9.73;;;8.48;;
22965;SDS011;11649;48.090;9.754;2023-05-15T04:34:08;12.23;;;8.75;;
22965;SDS011;11649;48.090;9.754;2023-05-15T04:36:35;12.65;;;9.90;;
22965;SDS011;11649;48.090;9.754;2023-05-15T04:39:01;12.57;;;9.40;;
22965;SDS011;11649;48.090;9.754;2023-05-15T04:41:28;11.68;;;8.90;;
22965;SDS011;11649;48.090;9.754;2023-05-15T04:43:55;19.67;;;8.88;;
22965;SDS011;11649;48.090;9.754;2023-05-15T04:46:22;14.27;;;9.90;;
22965;SDS011;11649;48.090;9.754;2023-05-15T04:48:48;13.10;;;10.68;;
22965;SDS011;11649;48.090;9.754;2023-05-15T04:51:15;13.73;;;9.52;;
22965;SDS011;11649;48.090;9.754;2023-05-15T04:53:42;12.52;;;9.02;;
22965;SDS011;11649;48.090;9.754;2023-05-15T04:56:09;15.63;;;9.27;;
22965;SDS011;11649;48.090;9.754;2023-05-15T04:58:36;14.88;;;9.55;;
22965;SDS011;11649;48.090;9.754;2023-05-15T05:01:02;10.48;;;8.75;;
22965;SDS011;11649;48.090;9.754;2023-05-15T05:03:29;13.20;;;8.88;;
22965;SDS011;11649;48.090;9.754;2023-05-15T05:05:56;14.93;;;8.68;;
22965;SDS011;11649;48.090;9.754;2023-05-15T05:08:23;11.82;;;8.98;;
22965;SDS011;11649;48.090;9.754;2023-05-15T05:10:54;12.75;;;10.10;;
22965;SDS011;11649;48.090;9.754;2023-05-15T05:13:22;11.23;;;9.27;;
22965;SDS011;11649;48.090;9.754;2023-05-15T05:15:49;11.57;;;9.82;;
22965;SDS011;11649;48.090;9.754;2023-05-15T05:18:15;9.98;;;8.70;;
22965;SDS011;11649;48.090;9.754;2023-05-15T05:20:42;12.25;;;9.40;;
22965;SDS011;11649;48.090;9.754;2023-05-15T05:23:09;11.95;;;9.55;;
22965;SDS011;11649;48.090;9.754;2023-05-15T05:25:36;10.82;;;9.68;;
22965;SDS011;11649;48.090;9.754;2023-05-15T05:28:02;11.07;;;9.38;;
22965;SDS011;11649;48.090;9.754;2023-05-15T05:30:29;9.95;;;8.75;;
22965;SDS011;11649;48.090;9.754;2023-05-15T05:32:56;9.82;;;8.65;;
22965;SDS011;11649;48.090;9.754;2023-05-15T05:35:23;11.57;;;8.95;;
22965;SDS011;11649;48.090;9.754;2023-05-15T05:37:51;9.88;;;8.82;;
22965;SDS011;11649;48.090;9.754;2023-05-15T05:40:18;11.57;;;9.65;;
22965;SDS011;11649;48.090;9.754;2023-05-15T05:42:44;9.85;;;8.85;;
22965;SDS011;11649;48.090;9.754;2023-05-15T05:45:11;10.98;;;8.85;;
22965;SDS011;11649;48.090;9.754;2023-05-15T05:47:38;13.25;;;8.40;;
22965;SDS011;11649;48.090;9.754;2023-05-15T05:50:05;10.70;;;9.20;;
22965;SDS011;11649;48.090;9.754;2023-05-15T05:52:32;10.18;;;8.75;;
22965;SDS011;11649;48.090;9.754;2023-05-15T05:54:59;11.60;;;9.20;;
22965;SDS011;11649;48.090;9.754;2023-05-15T05:57:25;10.50;;;8.40;;
22965;SDS011;11649;48.090;9.754;2023-05-15T05:59:52;10.93;;;9.05;;
22965;SDS011;11649;48.090;9.754;2023-05-15T06:02:19;11.55;;;9.00;;
22965;SDS011;11649;48.090;9.754;2023-05-15T06:04:46;11.68;;;9.77;;
22965;SDS011;11649;48.090;9.754;2023-05-15T06:07:13;10.52;;;9.05;;
22965;SDS011;11649;48.090;9.754;2023-05-15T06:09:42;10.95;;;9.60;;
22965;SDS011;11649;48.090;9.754;2023-05-15T06:12:08;11.95;;;9.88;;
22965;SDS011;11649;48.090;9.754;2023-05-15T06:14:35;11.52;;;9.45;;
22965;SDS011;11649;48.090;9.754;2023-05-15T06:17:02;10.32;;;9.23;;
22965;SDS011;11649;48.090;9.754;2023-05-15T06:19:28;13.55;;;10.07;;
22965;SDS011;11649;48.090;9.754;2023-05-15T06:21:55;12.00;;;9.63;;
22965;SDS011;11649;48.090;9.754;2023-05-15T06:24:22;10.98;;;9.13;;
22965;SDS011;11649;48.090;9.754;2023-05-15T06:26:49;10.38;;;8.45;;
22965;SDS011;11649;48.090;9.754;2023-05-15T06:29:17;11.05;;;8.85;;
22965;SDS011;11649;48.090;9.754;2023-05-15T06:31:44;10.65;;;8.95;;
22965;SDS011;11649;48.090;9.754;2023-05-15T06:34:11;12.23;;;8.90;;
22965;SDS011;11649;48.090;9.754;2023-05-15T06:36:37;10.23;;;9.13;;
22965;SDS011;11649;48.090;9.754;2023-05-15T06:39:04;12.60;;;10.00;;
22965;SDS011;11649;48.090;9.754;2023-05-15T06:41:31;16.92;;;9.30;;
22965;SDS011;11649;48.090;9.754;2023-05-15T06:43:58;12.75;;;9.55;;
22965;SDS011;11649;48.090;9.754;2023-05-15T06:46:25;10.60;;;9.15;;
22965;SDS011;11649;48.090;9.754;2023-05-15T06:48:51;10.85;;;9.23;;
22965;SDS011;11649;48.090;9.754;2023-05-15T06:51:18;10.32;;;8.82;;
22965;SDS011;11649;48.090;9.754;2023-05-15T06:53:45;10.48;;;9.10;;
22965;SDS011;11649;48.090;9.754;2023-05-15T06:56:12;10.13;;;8.88;;
22965;SDS011;11649;48.090;9.754;2023-05-15T06:58:38;9.18;;;8.18;;
22965;SDS011;11649;48.090;9.754;2023-05-15T07:01:05;9.85;;;8.02;;
22965;SDS011;11649;48.090;9.754;2023-05-15T07:03:45;11.88;;;9.23;;
22965;SDS011;11649;48.090;9.754;2023-05-15T07:06:11;9.73;;;8.52;;
22965;SDS011;11649;48.090;9.754;2023-05-15T07:08:38;10.48;;;9.38;;
22965;SDS011;11649;48.090;9.754;2023-05-15T07:11:05;11.32;;;8.82;;
22965;SDS011;11649;48.090;9.754;2023-05-15T07:13:31;10.02;;;8.38;;
22965;SDS011;11649;48.090;9.754;2023-05-15T07:15:58;12.13;;;9.40;;
22965;SDS011;11649;48.090;9.754;2023-05-15T07:18:25;9.50;;;8.50;;
22965;SDS011;11649;48.090;9.754;2023-05-15T07:20:51;14.43;;;10.48;;
22965;SDS011;11649;48.090;9.754;2023-05-15T07:23:18;13.35;;;10.00;;
22965;SDS011;11649;48.090;9.754;2023-05-15T07:25:45;11.25;;;9.70;;
22965;SDS011;11649;48.090;9.754;2023-05-15T07:28:11;14.30;;;8.95;;
22965;SDS011;11649;48.090;9.754;2023-05-15T07:30:39;11.05;;;9.23;;
22965;SDS011;11649;48.090;9.754;2023-05-15T07:33:06;11.65;;;9.52;;
22965;SDS011;11649;48.090;9.754;2023-05-15T07:35:33;11.00;;;9.85;;
22965;SDS011;11649;48.090;9.754;2023-05-15T07:38:00;11.90;;;9.60;;
22965;SDS011;11649;48.090;9.754;2023-05-15T07:40:27;14.80;;;10.32;;
22965;SDS011;11649;48.090;9.754;2023-05-15T07:42:53;10.57;;;8.48;;
22965;SDS011;11649;48.090;9.754;2023-05-15T07:45:20;8.90;;;7.78;;
22965;SDS011;11649;48.090;9.754;2023-05-15T07:47:48;10.50;;;9.10;;
22965;SDS011;11649;48.090;9.754;2023-05-15T07:50:15;11.35;;;9.50;;
22965;SDS011;11649;48.090;9.754;2023-05-15T07:52:42;9.50;;;8.60;;
22965;SDS011;11649;48.090;9.754;2023-05-15T07:55:09;9.80;;;8.80;;
22965;SDS011;11649;48.090;9.754;2023-05-15T07:57:36;9.85;;;8.38;;
22965;SDS011;11649;48.090;9.754;2023-05-15T08:00:05;9.90;;;8.75;;
22965;SDS011;11649;48.090;9.754;2023-05-15T08:02:36;9.18;;;7.82;;
22965;SDS011;11649;48.090;9.754;2023-05-15T08:05:03;9.90;;;8.75;;
22965;SDS011;11649;48.090;9.754;2023-05-15T08:07:30;9.30;;;8.30;;
22965;SDS011;11649;48.090;9.754;2023-05-15T08:10:00;11.10;;;8.60;;
22965;SDS011;11649;48.090;9.754;2023-05-15T08:12:32;8.75;;;7.80;;
22965;SDS011;11649;48.090;9.754;2023-05-15T08:14:59;9.40;;;7.97;;
22965;SDS011;11649;48.090;9.754;2023-05-15T08:17:26;10.93;;;8.20;;
22965;SDS011;11649;48.090;9.754;2023-05-15T08:19:54;8.90;;;7.85;;
22965;SDS011;11649;48.090;9.754;2023-05-15T08:22:20;9.48;;;8.48;;
22965;SDS011;11649;48.090;9.754;2023-05-15T08:24:47;9.35;;;8.25;;
22965;SDS011;11649;48.090;9.754;2023-05-15T08:27:14;10.02;;;8.00;;
22965;SDS011;11649;48.090;9.754;2023-05-15T08:29:41;8.50;;;7.60;;
22965;SDS011;11649;48.090;9.754;2023-05-15T08:32:08;11.45;;;7.68;;
22965;SDS011;11649;48.090;9.754;2023-05-15T08:34:35;8.40;;;6.93;;
22965;SDS011;11649;48.090;9.754;2023-05-15T08:37:02;8.55;;;7.45;;
22965;SDS011;11649;48.090;9.754;2023-05-15T08:39:30;8.95;;;7.57;;
22965;SDS011;11649;48.090;9.754;2023-05-15T08:48:12;8.80;;;7.90;;
22965;SDS011;11649;48.090;9.754;2023-05-15T08:50:43;8.40;;;7.60;;
22965;SDS011;11649;48.090;9.754;2023-05-15T08:53:11;11.45;;;8.30;;
22965;SDS011;11649;48.090;9.754;2023-05-15T08:55:38;10.30;;;8.43;;
22965;SDS011;11649;48.090;9.754;2023-05-15T08:58:16;11.20;;;8.60;;
22965;SDS011;11649;48.090;9.754;2023-05-15T09:00:44;10.50;;;9.48;;
22965;SDS011;11649;48.090;9.754;2023-05-15T09:05:56;12.82;;;10.68;;
22965;SDS011;11649;48.090;9.754;2023-05-15T09:08:24;12.68;;;10.00;;
22965;SDS011;11649;48.090;9.754;2023-05-15T09:10:52;15.10;;;9.65;;
22965;SDS011;11649;48.090;9.754;2023-05-15T09:13:19;13.50;;;9.23;;
22965;SDS011;11649;48.090;9.754;2023-05-15T09:15:46;12.60;;;10.05;;
22965;SDS011;11649;48.090;9.754;2023-05-15T09:18:13;16.73;;;12.18;;
22965;SDS011;11649;48.090;9.754;2023-05-15T09:20:41;16.02;;;12.48;;
22965;SDS011;11649;48.090;9.754;2023-05-15T09:23:20;15.00;;;12.57;;
22965;SDS011;11649;48.090;9.754;2023-05-15T09:25:58;16.92;;;11.70;;
22965;SDS011;11649;48.090;9.754;2023-05-15T09:28:26;21.52;;;13.25;;
22965;SDS011;11649;48.090;9.754;2023-05-15T09:31:12;17.73;;;13.40;;
22965;SDS011;11649;48.090;9.754;2023-05-15T09:33:40;16.20;;;13.38;;
22965;SDS011;11649;48.090;9.754;2023-05-15T09:36:07;17.88;;;13.85;;
22965;SDS011;11649;48.090;9.754;2023-05-15T09:38:39;18.65;;;14.18;;
22965;SDS011;11649;48.090;9.754;2023-05-15T09:41:08;15.88;;;13.27;;
22965;SDS011;11649;48.090;9.754;2023-05-15T09:43:38;19.05;;;14.73;;
22965;SDS011;11649;48.090;9.754;2023-05-15T09:46:06;21.73;;;14.20;;
22965;SDS011;11649;48.090;9.754;2023-05-15T09:48:34;15.65;;;13.20;;
22965;SDS011;11649;48.090;9.754;2023-05-15T09:51:01;14.93;;;12.50;;
22965;SDS011;11649;48.090;9.754;2023-05-15T09:53:30;21.25;;;13.40;;
22965;SDS011;11649;48.090;9.754;2023-05-15T09:55:57;16.80;;;14.23;;
22965;SDS011;11649;48.090;9.754;2023-05-15T09:58:24;17.65;;;13.73;;
22965;SDS011;11649;48.090;9.754;2023-05-15T10:00:50;20.05;;;15.90;;
22965;SDS011;11649;48.090;9.754;2023-05-15T10:03:17;19.95;;;15.45;;
22965;SDS011;11649;48.090;9.754;2023-05-15T10:05:45;19.80;;;15.23;;
22965;SDS011;11649;48.090;9.754;2023-05-15T10:08:12;21.10;;;15.95;;
22965;SDS011;11649;48.090;9.754;2023-05-15T10:10:45;21.13;;;17.13;;
22965;SDS011;11649;48.090;9.754;2023-05-15T10:13:12;20.35;;;16.13;;
22965;SDS011;11649;48.090;9.754;2023-05-15T10:15:38;21.23;;;16.58;;
22965;SDS011;11649;48.090;9.754;2023-05-15T10:18:06;20.17;;;16.65;;
22965;SDS011;11649;48.090;9.754;2023-05-15T10:20:33;18.70;;;15.50;;
22965;SDS011;11649;48.090;9.754;2023-05-15T10:23:02;15.18;;;13.57;;
22965;SDS011;11649;48.090;9.754;2023-05-15T10:28:08;17.10;;;13.90;;
22965;SDS011;11649;48.090;9.754;2023-05-15T10:30:37;19.45;;;15.18;;
22965;SDS011;11649;48.090;9.754;2023-05-15T10:33:05;15.45;;;12.80;;
22965;SDS011;11649;48.090;9.754;2023-05-15T10:35:33;15.90;;;12.60;;
22965;SDS011;11649;48.090;9.754;2023-05-15T10:38:01;18.30;;;13.30;;
22965;SDS011;11649;48.090;9.754;2023-05-15T10:40:31;14.50;;;12.10;;
22965;SDS011;11649;48.090;9.754;2023-05-15T10:43:01;11.27;;;9.75;;
22965;SDS011;11649;48.090;9.754;2023-05-15T10:45:30;13.20;;;11.30;;
22965;SDS011;11649;48.090;9.754;2023-05-15T10:47:57;14.35;;;12.15;;
22965;SDS011;11649;48.090;9.754;2023-05-15T10:50:25;14.27;;;11.88;;
22965;SDS011;11649;48.090;9.754;2023-05-15T10:52:52;12.68;;;11.38;;
22965;SDS011;11649;48.090;9.754;2023-05-15T10:55:21;14.48;;;12.80;;
22965;SDS011;11649;48.090;9.754;2023-05-15T10:57:48;15.10;;;12.70;;
22965;SDS011;11649;48.090;9.754;2023-05-15T11:02:49;18.95;;;14.15;;
22965;SDS011;11649;48.090;9.754;2023-05-15T11:05:19;17.70;;;14.45;;
22965;SDS011;11649;48.090;9.754;2023-05-15T11:10:40;16.08;;;13.57;;
22965;SDS011;11649;48.090;9.754;2023-05-15T11:13:07;16.20;;;13.35;;
22965;SDS011;11649;48.090;9.754;2023-05-15T11:15:41;19.13;;;15.07;;
22965;SDS011;11649;48.090;9.754;2023-05-15T11:18:09;16.70;;;14.40;;
22965;SDS011;11649;48.090;9.754;2023-05-15T11:20:39;12.85;;;10.85;;
22965;SDS011;11649;48.090;9.754;2023-05-15T11:23:20;11.95;;;7.47;;
22965;SDS011;11649;48.090;9.754;2023-05-15T11:25:56;8.20;;;6.30;;
22965;SDS011;11649;48.090;9.754;2023-05-15T11:28:25;5.32;;;4.10;;
22965;SDS011;11649;48.090;9.754;2023-05-15T11:31:02;5.05;;;4.20;;
22965;SDS011;11649;48.090;9.754;2023-05-15T11:33:31;7.63;;;3.25;;
22965;SDS011;11649;48.090;9.754;2023-05-15T11:35:59;5.03;;;3.47;;
22965;SDS011;11649;48.090;9.754;2023-05-15T11:38:37;3.80;;;2.92;;
22965;SDS011;11649;48.090;9.754;2023-05-15T11:41:15;4.10;;;3.55;;
22965;SDS011;11649;48.090;9.754;2023-05-15T11:43:43;5.57;;;3.42;;
22965;SDS011;11649;48.090;9.754;2023-05-15T11:46:11;3.55;;;3.25;;
22965;SDS011;11649;48.090;9.754;2023-05-15T11:48:43;4.53;;;3.58;;
22965;SDS011;11649;48.090;9.754;2023-05-15T11:51:21;3.03;;;2.13;;
22965;SDS011;11649;48.090;9.754;2023-05-15T11:53:53;3.38;;;2.63;;
22965;SDS011;11649;48.090;9.754;2023-05-15T11:56:24;2.38;;;2.17;;
22965;SDS011;11649;48.090;9.754;2023-05-15T11:58:58;2.30;;;1.92;;
22965;SDS011;11649;48.090;9.754;2023-05-15T12:01:26;2.55;;;2.35;;
22965;SDS011;11649;48.090;9.754;2023-05-15T12:04:00;2.67;;;2.47;;
22965;SDS011;11649;48.090;9.754;2023-05-15T12:06:27;5.20;;;2.80;;
22965;SDS011;11649;48.090;9.754;2023-05-15T12:08:54;4.10;;;3.08;;
22965;SDS011;11649;48.090;9.754;2023-05-15T12:11:22;4.05;;;3.10;;
22965;SDS011;11649;48.090;9.754;2023-05-15T12:13:52;3.90;;;3.50;;
22965;SDS011;11649;48.090;9.754;2023-05-15T12:16:26;3.67;;;3.00;;
22965;SDS011;11649;48.090;9.754;2023-05-15T12:18:55;3.83;;;3.22;;
22965;SDS011;11649;48.090;9.754;2023-05-15T12:21:24;5.97;;;3.83;;
22965;SDS011;11649;48.090;9.754;2023-05-15T12:23:52;3.38;;;2.90;;
22965;SDS011;11649;48.090;9.754;2023-05-15T12:26:33;3.40;;;2.88;;
22965;SDS011;11649;48.090;9.754;2023-05-15T12:29:00;6.40;;;2.40;;
22965;SDS011;11649;48.090;9.754;2023-05-15T12:31:27;2.33;;;2.13;;
22965;SDS011;11649;48.090;9.754;2023-05-15T12:33:54;2.50;;;2.30;;
22965;SDS011;11649;48.090;9.754;2023-05-15T12:36:21;2.80;;;2.50;;
22965;SDS011;11649;48.090;9.754;2023-05-15T12:38:48;4.43;;;2.50;;
22965;SDS011;11649;48.090;9.754;2023-05-15T12:41:15;3.00;;;2.67;;
22965;SDS011;11649;48.090;9.754;2023-05-15T12:43:42;3.60;;;3.30;;
22965;SDS011;11649;48.090;9.754;2023-05-15T12:46:09;3.50;;;2.83;;
22965;SDS011;11649;48.090;9.754;2023-05-15T12:48:39;2.90;;;2.60;;
22965;SDS011;11649;48.090;9.754;2023-05-15T12:51:09;3.83;;;3.28;;
22965;SDS011;11649;48.090;9.754;2023-05-15T12:53:41;3.50;;;3.10;;
22965;SDS011;11649;48.090;9.754;2023-05-15T12:56:09;3.40;;;3.10;;
22965;SDS011;11649;48.090;9.754;2023-05-15T12:58:41;3.55;;;2.92;;
22965;SDS011;11649;48.090;9.754;2023-05-15T13:01:08;3.47;;;3.08;;
22965;SDS011;11649;48.090;9.754;2023-05-15T13:03:35;3.83;;;3.35;;
22965;SDS011;11649;48.090;9.754;2023-05-15T13:06:02;4.00;;;3.50;;
22965;SDS011;11649;48.090;9.754;2023-05-15T13:08:29;4.97;;;3.92;;
22965;SDS011;11649;48.090;9.754;2023-05-15T13:10:57;4.47;;;4.07;;
22965;SDS011;11649;48.090;9.754;2023-05-15T13:16:24;5.93;;;5.22;;
22965;SDS011;11649;48.090;9.754;2023-05-15T13:18:55;5.20;;;4.70;;
22965;SDS011;11649;48.090;9.754;2023-05-15T13:21:25;6.25;;;5.10;;
22965;SDS011;11649;48.090;9.754;2023-05-15T13:23:52;5.30;;;4.25;;
22965;SDS011;11649;48.090;9.754;2023-05-15T13:26:19;5.05;;;3.97;;
22965;SDS011;11649;48.090;9.754;2023-05-15T13:28:45;4.50;;;4.10;;
22965;SDS011;11649;48.090;9.754;2023-05-15T13:33:58;4.50;;;4.05;;
22965;SDS011;11649;48.090;9.754;2023-05-15T13:36:25;4.82;;;4.13;;
22965;SDS011;11649;48.090;9.754;2023-05-15T13:38:51;4.10;;;3.70;;
22965;SDS011;11649;48.090;9.754;2023-05-15T13:41:18;3.55;;;3.25;;
22965;SDS011;11649;48.090;9.754;2023-05-15T13:43:45;4.30;;;3.15;;
22965;SDS011;11649;48.090;9.754;2023-05-15T13:46:14;3.63;;;3.33;;
22965;SDS011;11649;48.090;9.754;2023-05-15T13:48:41;7.35;;;3.58;;
22965;SDS011;11649;48.090;9.754;2023-05-15T13:51:08;3.40;;;3.10;;
22965;SDS011;11649;48.090;9.754;2023-05-15T13:53:35;3.58;;;2.67;;
22965;SDS011;11649;48.090;9.754;2023-05-15T13:56:01;3.00;;;2.67;;
22965;SDS011;11649;48.090;9.754;2023-05-15T13:58:28;3.08;;;2.65;;
22965;SDS011;11649;48.090;9.754;2023-05-15T14:00:55;7.70;;;3.05;;
22965;SDS011;11649;48.090;9.754;2023-05-15T14:03:22;3.00;;;2.60;;
22965;SDS011;11649;48.090;9.754;2023-05-15T14:05:49;4.90;;;2.58;;
22965;SDS011;11649;48.090;9.754;2023-05-15T14:08:17;2.70;;;2.33;;
22965;SDS011;11649;48.090;9.754;2023-05-15T14:10:44;3.92;;;2.22;;
22965;SDS011;11649;48.090;9.754;2023-05-15T14:13:11;4.45;;;2.20;;
22965;SDS011;11649;48.090;9.754;2023-05-15T14:15:38;2.58;;;2.30;;
22965;SDS011;11649;48.090;9.754;2023-05-15T14:18:04;2.47;;;2.15;;
22965;SDS011;11649;48.090;9.754;2023-05-15T14:20:31;3.42;;;2.40;;
22965;SDS011;11649;48.090;9.754;2023-05-15T14:22:58;2.15;;;1.65;;
22965;SDS011;11649;48.090;9.754;2023-05-15T14:25:31;2.65;;;2.00;;
22965;SDS011;11649;48.090;9.754;2023-05-15T14:27:57;1.98;;;1.80;;
22965;SDS011;11649;48.090;9.754;2023-05-15T14:30:26;2.08;;;1.88;;
22965;SDS011;11649;48.090;9.754;2023-05-15T14:32:53;1.98;;;1.85;;
22965;SDS011;11649;48.090;9.754;2023-05-15T14:35:22;2.40;;;2.05;;
22965;SDS011;11649;48.090;9.754;2023-05-15T14:37:50;2.30;;;2.00;;
22965;SDS011;11649;48.090;9.754;2023-05-15T14:40:17;2.80;;;2.10;;
22965;SDS011;11649;48.090;9.754;2023-05-15T14:42:44;2.90;;;2.00;;
22965;SDS011;11649;48.090;9.754;2023-05-15T14:45:10;2.30;;;2.10;;
22965;SDS011;11649;48.090;9.754;2023-05-15T14:47:37;2.83;;;1.80;;
22965;SDS011;11649;48.090;9.754;2023-05-15T14:50:04;3.17;;;2.20;;
22965;SDS011;11649;48.090;9.754;2023-05-15T14:52:31;2.20;;;2.00;;
22965;SDS011;11649;48.090;9.754;2023-05-15T14:54:59;1.70;;;1.60;;
22965;SDS011;11649;48.090;9.754;2023-05-15T14:57:35;2.78;;;1.70;;
22965;SDS011;11649;48.090;9.754;2023-05-15T15:00:02;1.60;;;1.50;;
22965;SDS011;11649;48.090;9.754;2023-05-15T15:02:31;1.60;;;1.50;;
22965;SDS011;11649;48.090;9.754;2023-05-15T15:04:58;1.80;;;1.70;;
22965;SDS011;11649;48.090;9.754;2023-05-15T15:07:26;2.35;;;1.85;;
22965;SDS011;11649;48.090;9.754;2023-05-15T15:09:54;2.33;;;2.13;;
22965;SDS011;11649;48.090;9.754;2023-05-15T15:12:21;2.75;;;2.03;;
22965;SDS011;11649;48.090;9.754;2023-05-15T15:14:48;1.60;;;1.50;;
22965;SDS011;11649;48.090;9.754;2023-05-15T15:17:14;2.20;;;2.00;;